createdAt,value
2019-04-01T00:00:37.801Z,84.22
2019-04-01T00:03:07.206Z,84.54
2019-04-01T00:05:35.503Z,84.64
2019-04-01T00:08:03.860Z,85.21
2019-04-01T00:10:32.151Z,85.40
2019-04-01T00:13:00.427Z,85.04
2019-04-01T00:15:28.721Z,84.70
2019-04-01T00:17:57.064Z,84.51
2019-04-01T00:20:25.365Z,84.71
2019-04-01T00:22:53.777Z,85.22
2019-04-01T00:25:22.212Z,85.45
2019-04-01T00:27:50.494Z,85.36
2019-04-01T00:30:18.908Z,85.42
2019-04-01T00:32:47.241Z,85.41
2019-04-01T00:35:15.533Z,85.18
2019-04-01T00:37:43.934Z,84.98
2019-04-01T00:40:13.844Z,84.85
2019-04-01T00:42:44.039Z,84.68
2019-04-01T00:45:13.981Z,84.55
2019-04-01T00:47:42.377Z,84.54
2019-04-01T00:50:10.644Z,84.32
2019-04-01T00:52:39.138Z,84.24
2019-04-01T00:55:07.402Z,84.04
2019-04-01T00:57:35.679Z,84.03
2019-04-01T01:00:04.891Z,84.06
2019-04-01T01:02:33.331Z,84.46
2019-04-01T01:05:01.633Z,84.49
2019-04-01T01:07:29.904Z,84.39
2019-04-01T01:09:58.296Z,84.27
2019-04-01T01:12:26.689Z,84.39
2019-04-01T01:14:55.519Z,84.35
2019-04-01T01:17:25.151Z,84.59
2019-04-01T01:19:53.432Z,84.64
2019-04-01T01:22:22.206Z,84.71
2019-04-01T01:24:52.050Z,84.91
2019-04-01T01:27:20.328Z,85.03
2019-04-01T01:29:48.600Z,85.05
2019-04-01T01:32:16.905Z,85.21
2019-04-01T01:34:45.261Z,85.08
2019-04-01T01:37:13.532Z,85.19
2019-04-01T01:39:41.848Z,85.29
2019-04-01T01:42:10.132Z,85.30
2019-04-01T01:44:38.515Z,85.21
2019-04-01T01:47:07.062Z,85.39
2019-04-01T01:49:35.394Z,85.65
2019-04-01T01:52:03.780Z,85.69
2019-04-01T01:54:32.836Z,85.79
2019-04-01T01:57:01.146Z,85.88
2019-04-01T01:59:29.743Z,85.84
2019-04-01T02:01:58.045Z,85.80
2019-04-01T02:04:26.344Z,85.88
2019-04-01T02:06:54.677Z,86.12
2019-04-01T02:09:23.462Z,86.27
2019-04-01T02:11:51.906Z,86.55
2019-04-01T02:14:20.225Z,86.66
2019-04-01T02:16:48.638Z,86.77
2019-04-01T02:19:16.915Z,88.11
2019-04-01T02:21:45.281Z,88.00
2019-04-01T02:24:14.336Z,88.05
2019-04-01T02:26:42.615Z,88.29
2019-04-01T02:29:10.951Z,89.04
2019-04-01T02:31:39.794Z,89.03
2019-04-01T02:34:08.208Z,89.20
2019-04-01T02:36:37.071Z,89.46
2019-04-01T02:39:07.292Z,89.39
2019-04-01T02:41:35.710Z,89.48
2019-04-01T02:44:03.970Z,90.12
2019-04-01T02:46:32.332Z,89.71
2019-04-01T02:49:01.013Z,90.02
2019-04-01T02:51:29.494Z,89.90
2019-04-01T02:53:57.769Z,90.58
2019-04-01T02:56:26.535Z,90.80
2019-04-01T02:58:54.975Z,90.70
2019-04-01T03:01:23.249Z,90.37
2019-04-01T03:03:51.528Z,90.59
2019-04-01T03:06:19.834Z,90.34
2019-04-01T03:08:48.267Z,90.38
2019-04-01T03:11:16.568Z,90.32
2019-04-01T03:13:44.920Z,90.47
2019-04-01T03:16:13.425Z,90.74
2019-04-01T03:18:41.764Z,90.74
2019-04-01T03:21:10.042Z,90.89
2019-04-01T03:23:38.356Z,91.15
2019-04-01T03:26:06.633Z,91.59
2019-04-01T03:28:35.107Z,91.24
2019-04-01T03:31:03.461Z,92.04
2019-04-01T03:33:31.839Z,92.74
2019-04-01T03:36:00.132Z,92.83
2019-04-01T03:38:28.408Z,93.05
2019-04-01T03:40:56.729Z,92.79
2019-04-01T03:43:25.858Z,92.94
2019-04-01T03:45:54.136Z,93.26
2019-04-01T03:48:22.452Z,93.41
2019-04-01T03:50:50.745Z,93.60
2019-04-01T03:53:19.115Z,94.16
2019-04-01T03:55:47.452Z,94.56
2019-04-01T03:58:15.876Z,94.73
2019-04-01T04:00:44.318Z,95.01
2019-04-01T04:03:12.595Z,95.13
2019-04-01T04:05:40.897Z,95.16
2019-04-01T04:08:09.227Z,95.00
2019-04-01T04:10:37.561Z,94.82
2019-04-01T04:13:05.834Z,95.76
2019-04-01T04:15:34.692Z,95.73
2019-04-01T04:18:02.972Z,96.06
2019-04-01T04:20:31.354Z,96.41
2019-04-01T04:22:59.658Z,96.19
2019-04-01T04:25:28.215Z,96.16
2019-04-01T04:27:56.535Z,97.05
2019-04-01T04:30:24.813Z,97.29
2019-04-01T04:32:53.140Z,97.34
2019-04-01T04:35:21.459Z,98.19
2019-04-01T04:37:49.754Z,98.70
2019-04-01T04:40:18.043Z,98.94
2019-04-01T04:42:46.663Z,99.63
2019-04-01T04:45:14.957Z,100.00
2019-04-01T04:47:43.256Z,100.00
2019-04-01T04:50:11.608Z,100.00
2019-04-01T04:52:40.013Z,100.00
2019-04-01T04:55:08.298Z,100.00
2019-04-01T04:57:37.350Z,100.00
2019-04-01T05:00:06.896Z,100.00
2019-04-01T05:02:35.647Z,100.00
2019-04-01T05:05:05.679Z,100.00
2019-04-01T05:07:33.940Z,99.91
2019-04-01T05:10:02.260Z,99.76
2019-04-01T05:12:30.590Z,100.00
2019-04-01T05:14:58.938Z,100.00
2019-04-01T05:17:27.282Z,100.00
2019-04-01T05:19:55.638Z,100.00
2019-04-01T05:22:23.935Z,100.00
2019-04-01T05:24:52.242Z,100.00
2019-04-01T05:27:20.907Z,100.00
2019-04-01T05:29:49.357Z,100.00
2019-04-01T05:32:18.451Z,100.00
2019-04-01T05:34:46.750Z,100.00
2019-04-01T05:37:16.233Z,100.00
2019-04-01T05:39:44.925Z,100.00
2019-04-01T05:42:13.711Z,100.00
2019-04-01T05:44:42.902Z,100.00
2019-04-01T05:47:11.494Z,100.00
2019-04-01T05:49:39.793Z,100.00
2019-04-01T05:52:08.166Z,100.00
2019-04-01T05:54:37.243Z,100.00
2019-04-01T05:57:05.620Z,100.00
2019-04-01T05:59:34.038Z,100.00
2019-04-01T06:02:02.425Z,100.00
2019-04-01T06:04:30.660Z,100.00
2019-04-01T06:06:58.979Z,100.00
2019-04-01T06:09:27.256Z,100.00
2019-04-01T06:11:55.677Z,100.00
2019-04-01T06:14:23.969Z,100.00
2019-04-01T06:16:52.341Z,100.00
2019-04-01T06:19:20.650Z,100.00
2019-04-01T06:21:49.118Z,100.00
2019-04-01T06:24:17.442Z,100.00
2019-04-01T06:26:45.719Z,100.00
2019-04-01T06:29:13.994Z,100.00
2019-04-01T06:31:42.317Z,100.00
2019-04-01T06:34:10.649Z,100.00
2019-04-01T06:36:39.699Z,100.00
2019-04-01T06:39:07.979Z,100.00
2019-04-01T06:41:37.101Z,99.86
2019-04-01T06:44:05.396Z,98.04
2019-04-01T06:46:33.715Z,97.20
2019-04-01T06:49:02.034Z,96.90
2019-04-01T06:51:30.308Z,95.16
2019-04-01T06:53:58.605Z,93.11
2019-04-01T06:56:26.910Z,92.39
2019-04-01T06:58:55.472Z,92.19
2019-04-01T07:01:23.928Z,89.96
2019-04-01T07:03:52.232Z,89.88
2019-04-01T07:06:20.551Z,90.29
2019-04-01T07:08:48.867Z,88.91
2019-04-01T07:11:17.348Z,88.77
2019-04-01T07:13:45.650Z,88.21
2019-04-01T07:16:15.833Z,87.99
2019-04-01T07:18:44.099Z,87.07
2019-04-01T07:21:12.453Z,84.17
2019-04-01T07:23:40.729Z,84.49
2019-04-01T07:26:09.028Z,81.62
2019-04-01T07:28:37.300Z,82.04
2019-04-01T07:31:05.704Z,80.61
2019-04-01T07:33:34.052Z,79.25
2019-04-01T07:36:02.418Z,79.55
2019-04-01T07:38:31.446Z,79.03
2019-04-01T07:40:59.922Z,77.70
2019-04-01T07:43:29.115Z,74.87
2019-04-01T07:45:59.999Z,75.57
2019-04-01T07:48:27.647Z,73.58
2019-04-01T07:50:56.683Z,73.01
2019-04-01T07:53:24.965Z,72.17
2019-04-01T07:55:53.413Z,72.39
2019-04-01T07:58:21.697Z,70.33
2019-04-01T08:00:49.967Z,71.32
2019-04-01T08:03:19.054Z,70.09
2019-04-01T08:05:47.388Z,68.99
2019-04-01T08:08:15.766Z,67.56
2019-04-01T08:10:44.559Z,67.56
2019-04-01T08:13:12.850Z,67.04
2019-04-01T08:15:41.104Z,64.28
2019-04-01T08:18:09.408Z,64.28
2019-04-01T08:20:37.713Z,63.43
2019-04-01T08:23:06.055Z,64.03
2019-04-01T08:25:34.317Z,61.39
2019-04-01T08:28:02.589Z,60.93
2019-04-01T08:30:31.013Z,60.62
2019-04-01T08:32:59.293Z,59.15
2019-04-01T08:35:27.566Z,58.36
2019-04-01T08:37:55.943Z,59.29
2019-04-01T08:40:24.214Z,58.20
2019-04-01T08:42:52.592Z,58.13
2019-04-01T08:45:20.953Z,57.70
2019-04-01T08:47:49.250Z,56.47
2019-04-01T08:50:17.530Z,56.58
2019-04-01T08:52:45.925Z,55.78
2019-04-01T08:55:14.259Z,56.13
2019-04-01T08:57:42.628Z,54.76
2019-04-01T09:00:11.096Z,54.41
2019-04-01T09:02:39.599Z,53.91
2019-04-01T09:05:07.976Z,52.27
2019-04-01T09:07:37.213Z,52.95
2019-04-01T09:10:06.341Z,52.26
2019-04-01T09:12:34.758Z,52.45
2019-04-01T09:15:03.584Z,52.65
2019-04-01T09:17:31.919Z,51.13
2019-04-01T09:20:00.450Z,51.29
2019-04-01T09:22:28.991Z,50.77
2019-04-01T09:24:57.409Z,49.54
2019-04-01T09:27:25.687Z,49.27
2019-04-01T09:29:54.033Z,50.13
2019-04-01T09:32:22.407Z,49.66
2019-04-01T09:34:50.688Z,48.47
2019-04-01T09:37:18.995Z,47.96
2019-04-01T09:39:47.298Z,45.92
2019-04-01T09:42:15.596Z,47.49
2019-04-01T09:44:43.887Z,47.74
2019-04-01T09:47:12.313Z,47.70
2019-04-01T09:49:40.585Z,46.34
2019-04-01T09:52:09.439Z,46.08
2019-04-01T09:54:37.764Z,46.66
2019-04-01T09:57:17.268Z,46.01
2019-04-01T09:59:36.063Z,45.18
2019-04-01T10:02:04.492Z,45.37
2019-04-01T10:04:32.985Z,44.92
2019-04-01T10:07:01.256Z,46.02
2019-04-01T10:09:29.564Z,44.33
2019-04-01T10:11:57.876Z,44.96
2019-04-01T10:14:26.302Z,44.99
2019-04-01T10:16:55.350Z,44.11
2019-04-01T10:19:23.715Z,44.73
2019-04-01T10:21:52.276Z,44.28
2019-04-01T10:24:20.556Z,43.50
2019-04-01T10:26:48.901Z,42.93
2019-04-01T10:29:17.282Z,43.03
2019-04-01T10:31:45.608Z,42.39
2019-04-01T10:34:14.532Z,43.59
2019-04-01T10:36:42.873Z,42.96
2019-04-01T10:39:11.344Z,41.98
2019-04-01T10:41:39.696Z,41.71
2019-04-01T10:44:07.969Z,41.04
2019-04-01T10:46:36.446Z,41.34
2019-04-01T10:49:04.833Z,40.86
2019-04-01T10:51:33.121Z,40.43
2019-04-01T10:54:01.616Z,41.29
2019-04-01T10:56:29.861Z,40.22
2019-04-01T10:58:58.723Z,40.27
2019-04-01T11:01:27.118Z,38.47
2019-04-01T11:03:55.838Z,38.36
2019-04-01T11:06:24.215Z,39.36
2019-04-01T11:08:52.786Z,39.77
2019-04-01T11:11:21.160Z,38.11
2019-04-01T11:13:51.710Z,37.10
2019-04-01T11:16:19.463Z,35.64
2019-04-01T11:18:47.790Z,36.87
2019-04-01T11:21:16.095Z,37.03
2019-04-01T11:23:44.381Z,37.18
2019-04-01T11:26:12.679Z,36.06
2019-04-01T11:28:41.040Z,35.89
2019-04-01T11:31:09.757Z,35.47
2019-04-01T11:33:38.024Z,36.43
2019-04-01T11:36:06.326Z,36.30
2019-04-01T11:38:34.742Z,36.68
2019-04-01T11:41:03.019Z,36.42
2019-04-01T11:43:35.268Z,34.57
2019-04-01T11:46:01.825Z,34.81
2019-04-01T11:48:30.992Z,33.70
2019-04-01T11:50:59.339Z,33.83
2019-04-01T11:53:27.735Z,35.18
2019-04-01T11:55:56.090Z,33.81
2019-04-01T11:58:24.396Z,34.10
2019-04-01T12:00:52.676Z,34.20
2019-04-01T12:03:21.104Z,33.64
2019-04-01T12:05:49.395Z,34.29
2019-04-01T12:08:17.820Z,33.55
2019-04-01T12:10:46.115Z,33.11
2019-04-01T12:13:14.740Z,32.20
2019-04-01T12:15:43.970Z,32.58
2019-04-01T12:18:12.251Z,32.08
2019-04-01T12:20:40.577Z,33.49
2019-04-01T12:23:08.871Z,32.75
2019-04-01T12:25:38.457Z,32.64
2019-04-01T12:28:08.215Z,32.97
2019-04-01T12:30:36.496Z,32.94
2019-04-01T12:33:04.914Z,33.75
2019-04-01T12:35:33.194Z,31.67
2019-04-01T12:38:01.476Z,32.33
2019-04-01T12:40:29.973Z,32.00
2019-04-01T12:42:58.350Z,31.78
2019-04-01T12:45:26.739Z,32.08
2019-04-01T12:47:55.070Z,32.14
2019-04-01T12:50:23.362Z,32.20
2019-04-01T12:52:51.675Z,32.36
2019-04-01T12:55:20.052Z,31.82
2019-04-01T12:57:48.799Z,31.04
2019-04-01T13:00:19.361Z,30.07
2019-04-01T13:02:47.642Z,30.06
2019-04-01T13:05:16.791Z,30.21
2019-04-01T13:07:45.985Z,29.89
2019-04-01T13:10:14.294Z,29.00
2019-04-01T13:12:43.199Z,29.37
2019-04-01T13:15:12.745Z,29.44
2019-04-01T13:17:41.708Z,29.22
2019-04-01T13:20:10.018Z,30.14
2019-04-01T13:22:38.430Z,28.82
2019-04-01T13:25:06.709Z,29.03
2019-04-01T13:27:35.137Z,28.41
2019-04-01T13:30:04.506Z,27.23
2019-04-01T13:32:32.789Z,28.83
2019-04-01T13:35:01.083Z,27.81
2019-04-01T13:37:29.385Z,27.38
2019-04-01T13:39:57.671Z,27.07
2019-04-01T13:42:26.841Z,27.46
2019-04-01T13:44:55.167Z,28.44
2019-04-01T13:47:23.494Z,28.12
2019-04-01T13:49:51.812Z,26.98
2019-04-01T13:52:20.183Z,25.52
2019-04-01T13:54:48.489Z,26.08
2019-04-01T13:57:17.937Z,26.79
2019-04-01T13:59:49.519Z,26.52
2019-04-01T14:02:16.390Z,25.15
2019-04-01T14:04:44.809Z,26.30
2019-04-01T14:07:13.093Z,26.95
2019-04-01T14:09:41.397Z,26.42
2019-04-01T14:12:09.748Z,26.99
2019-04-01T14:14:38.160Z,25.99
2019-04-01T14:17:06.441Z,26.34
2019-04-01T14:19:34.726Z,26.47
2019-04-01T14:22:03.038Z,26.12
2019-04-01T14:24:31.317Z,25.96
2019-04-01T14:26:59.616Z,26.57
2019-04-01T14:29:27.893Z,27.65
2019-04-01T14:31:56.335Z,28.09
2019-04-01T14:34:24.621Z,28.02
2019-04-01T14:36:52.919Z,28.18
2019-04-01T14:39:21.231Z,28.09
2019-04-01T14:41:49.585Z,28.33
2019-04-01T14:44:17.988Z,27.68
2019-04-01T14:46:46.266Z,27.74
2019-04-01T14:49:15.766Z,27.83
2019-04-01T14:51:44.161Z,27.55
2019-04-01T14:54:12.497Z,27.63
2019-04-01T14:56:40.806Z,27.59
2019-04-01T14:59:09.083Z,27.73
2019-04-01T15:01:37.392Z,27.83
2019-04-01T15:04:05.699Z,26.59
2019-04-01T15:06:34.102Z,27.73
2019-04-01T15:09:02.405Z,27.88
2019-04-01T15:11:30.742Z,28.30
2019-04-01T15:14:00.228Z,28.67
2019-04-01T15:16:29.757Z,27.64
2019-04-01T15:18:58.034Z,27.87
2019-04-01T15:21:26.334Z,28.65
2019-04-01T15:23:54.726Z,28.34
2019-04-01T15:26:23.074Z,28.70
2019-04-01T15:28:51.462Z,28.58
2019-04-01T15:31:19.845Z,28.95
2019-04-01T15:33:48.114Z,29.53
2019-04-01T15:36:17.124Z,29.25
2019-04-01T15:38:45.411Z,29.08
2019-04-01T15:41:13.812Z,29.43
2019-04-01T15:43:42.132Z,29.47
2019-04-01T15:46:10.410Z,29.40
2019-04-01T15:48:38.994Z,29.75
2019-04-01T15:51:07.913Z,30.40
2019-04-01T15:53:36.679Z,30.29
2019-04-01T15:56:05.631Z,30.03
2019-04-01T15:58:33.961Z,30.26
2019-04-01T16:01:02.245Z,30.93
2019-04-01T16:03:33.573Z,31.00
2019-04-01T16:06:03.038Z,31.31
2019-04-01T16:08:31.748Z,31.48
2019-04-01T16:11:00.558Z,31.29
2019-04-01T16:13:28.987Z,31.15
2019-04-01T16:15:57.273Z,31.47
2019-04-01T16:18:26.303Z,31.44
2019-04-01T16:20:55.271Z,32.14
2019-04-01T16:23:23.915Z,32.45
2019-04-01T16:25:52.261Z,32.55
2019-04-01T16:28:20.569Z,33.31
2019-04-01T16:30:48.905Z,33.56
2019-04-01T16:33:17.304Z,34.08
2019-04-01T16:35:46.088Z,34.67
2019-04-01T16:38:14.598Z,34.72
2019-04-01T16:40:42.885Z,35.02
2019-04-01T16:43:11.170Z,34.89
2019-04-01T16:45:39.504Z,35.50
2019-04-01T16:48:08.477Z,35.81
2019-04-01T16:50:37.813Z,35.79
2019-04-01T16:53:06.115Z,36.19
2019-04-01T16:55:36.073Z,36.00
2019-04-01T16:58:04.679Z,36.80
2019-04-01T17:00:32.972Z,36.94
2019-04-01T17:03:01.365Z,37.17
2019-04-01T17:05:34.092Z,37.86
2019-04-01T17:08:02.673Z,38.04
2019-04-01T17:10:30.974Z,38.49
2019-04-01T17:13:01.377Z,38.68
2019-04-01T17:15:29.494Z,38.57
2019-04-01T17:17:57.770Z,39.25
2019-04-01T17:20:26.125Z,39.94
2019-04-01T17:22:54.539Z,39.93
2019-04-01T17:25:22.880Z,40.08
2019-04-01T17:27:51.929Z,40.13
2019-04-01T17:30:20.300Z,40.57
2019-04-01T17:32:48.781Z,40.68
2019-04-01T17:35:17.062Z,40.84
2019-04-01T17:37:45.369Z,41.04
2019-04-01T17:40:16.884Z,41.24
2019-04-01T17:42:43.915Z,41.33
2019-04-01T17:45:24.667Z,41.88
2019-04-01T17:47:53.763Z,41.99
2019-04-01T17:50:22.043Z,42.75
2019-04-01T17:52:50.346Z,42.75
2019-04-01T17:55:18.619Z,43.31
2019-04-01T17:57:47.013Z,43.29
2019-04-01T18:00:17.597Z,43.45
2019-04-01T18:02:45.902Z,43.76
2019-04-01T18:05:15.960Z,43.74
2019-04-01T18:07:45.202Z,43.84
2019-04-01T18:10:13.480Z,44.19
2019-04-01T18:12:41.817Z,44.30
2019-04-01T18:15:10.135Z,44.71
2019-04-01T18:17:39.211Z,44.74
2019-04-01T18:20:07.964Z,44.78
2019-04-01T18:22:36.293Z,45.01
2019-04-01T18:25:05.698Z,45.11
2019-04-01T18:27:34.798Z,45.31
2019-04-01T18:30:03.680Z,45.64
2019-04-01T18:32:32.071Z,45.79
2019-04-01T18:35:04.012Z,45.85
2019-04-01T18:37:31.312Z,45.90
2019-04-01T18:39:59.720Z,46.10
2019-04-01T18:42:28.021Z,46.39
2019-04-01T18:44:56.323Z,46.45
2019-04-01T18:47:24.701Z,46.89
2019-04-01T18:49:52.989Z,46.98
2019-04-01T18:52:21.431Z,47.22
2019-04-01T18:54:49.739Z,47.15
2019-04-01T18:57:18.069Z,47.16
2019-04-01T18:59:46.394Z,47.21
2019-04-01T19:02:14.688Z,47.60
2019-04-01T19:04:43.093Z,47.61
2019-04-01T19:07:11.450Z,47.71
2019-04-01T19:09:39.727Z,47.75
2019-04-01T19:12:08.110Z,47.83
2019-04-01T19:14:36.439Z,47.86
2019-04-01T19:17:04.728Z,47.77
2019-04-01T19:19:32.999Z,47.90
2019-04-01T19:22:01.541Z,48.15
2019-04-01T19:24:29.873Z,48.22
2019-04-01T19:26:58.260Z,48.44
2019-04-01T19:29:27.429Z,48.81
2019-04-01T19:31:55.711Z,48.89
2019-04-01T19:34:23.997Z,48.99
2019-04-01T19:36:52.436Z,49.25
2019-04-01T19:39:20.766Z,49.52
2019-04-01T19:41:49.412Z,49.69
2019-04-01T19:44:17.762Z,49.82
2019-04-01T19:46:46.035Z,49.97
2019-04-01T19:49:14.310Z,50.13
2019-04-01T19:51:42.970Z,50.17
2019-04-01T19:54:11.280Z,50.38
2019-04-01T19:56:39.553Z,50.39
2019-04-01T19:59:08.834Z,50.40
2019-04-01T20:01:37.182Z,50.37
2019-04-01T20:04:05.456Z,50.47
2019-04-01T20:06:33.903Z,50.54
2019-04-01T20:09:02.243Z,50.67
2019-04-01T20:11:30.516Z,50.70
2019-04-01T20:13:58.851Z,51.07
2019-04-01T20:16:27.120Z,51.14
2019-04-01T20:18:55.419Z,51.20
2019-04-01T20:21:23.744Z,51.00
2019-04-01T20:23:54.825Z,51.17
2019-04-01T20:26:22.141Z,51.46
2019-04-01T20:28:50.432Z,51.44
2019-04-01T20:31:18.713Z,51.56
2019-04-01T20:33:49.141Z,51.35
2019-04-01T20:36:27.919Z,51.45
2019-04-01T20:38:49.055Z,51.68
2019-04-01T20:41:17.460Z,51.91
2019-04-01T20:43:45.898Z,52.04
2019-04-01T20:46:14.181Z,52.25
2019-04-01T20:48:42.496Z,52.27
2019-04-01T20:51:11.851Z,52.84
2019-04-01T20:53:40.124Z,52.64
2019-04-01T20:56:08.425Z,52.74
2019-04-01T20:58:37.710Z,52.66
2019-04-01T21:01:07.177Z,52.92
2019-04-01T21:03:35.770Z,53.09
2019-04-01T21:06:04.197Z,53.28
2019-04-01T21:08:32.553Z,53.27
2019-04-01T21:11:00.818Z,53.43
2019-04-01T21:13:29.148Z,53.56
2019-04-01T21:15:59.030Z,53.43
2019-04-01T21:18:27.501Z,53.57
2019-04-01T21:20:55.836Z,53.70
2019-04-01T21:23:24.166Z,53.86
2019-04-01T21:25:52.538Z,54.08
2019-04-01T21:28:22.907Z,54.32
2019-04-01T21:30:50.939Z,54.43
2019-04-01T21:33:19.979Z,54.64
2019-04-01T21:35:48.274Z,54.64
2019-04-01T21:38:16.585Z,54.88
2019-04-01T21:40:44.976Z,54.96
2019-04-01T21:43:13.278Z,55.14
2019-04-01T21:45:41.603Z,55.13
2019-04-01T21:48:10.558Z,55.27
2019-04-01T21:50:40.260Z,55.36
2019-04-01T21:53:08.539Z,55.46
2019-04-01T21:55:36.887Z,55.26
2019-04-01T21:58:05.198Z,55.70
2019-04-01T22:00:53.613Z,55.85
2019-04-01T22:03:21.957Z,55.97
2019-04-01T22:05:51.495Z,56.09
2019-04-01T22:08:22.349Z,56.25
2019-04-01T22:10:50.617Z,56.47
2019-04-01T22:13:18.934Z,56.72
2019-04-01T22:15:47.207Z,56.90
2019-04-01T22:18:15.957Z,56.86
2019-04-01T22:20:44.243Z,56.92
2019-04-01T22:23:12.551Z,57.15
2019-04-01T22:25:40.844Z,57.26
2019-04-01T22:28:09.124Z,57.32
2019-04-01T22:30:37.555Z,57.37
2019-04-01T22:33:05.824Z,57.48
2019-04-01T22:35:39.087Z,57.68
2019-04-01T22:38:06.207Z,57.73
2019-04-01T22:40:34.393Z,57.92
2019-04-01T22:43:02.653Z,57.89
2019-04-01T22:45:30.976Z,57.97
2019-04-01T22:47:59.243Z,58.11
2019-04-01T22:50:27.532Z,58.56
2019-04-01T22:52:55.955Z,58.47
2019-04-01T22:55:24.279Z,58.72
2019-04-01T22:57:53.314Z,58.82
2019-04-01T23:00:22.090Z,59.02
2019-04-01T23:02:50.398Z,59.39
2019-04-01T23:05:19.566Z,59.39
2019-04-01T23:07:47.842Z,59.53
2019-04-01T23:10:16.229Z,59.65
2019-04-01T23:12:45.211Z,59.72
2019-04-01T23:15:15.131Z,59.93
2019-04-01T23:17:44.364Z,60.30
2019-04-01T23:20:12.716Z,60.57
2019-04-01T23:22:41.073Z,60.40
2019-04-01T23:25:09.373Z,60.62
2019-04-01T23:27:38.515Z,60.57
2019-04-01T23:30:08.851Z,60.71
2019-04-01T23:32:37.161Z,61.10
2019-04-01T23:35:06.505Z,61.20
2019-04-01T23:37:34.884Z,61.20
2019-04-01T23:40:03.504Z,61.48
2019-04-01T23:42:32.113Z,61.59
2019-04-01T23:45:01.150Z,61.75
2019-04-01T23:47:30.455Z,61.94
2019-04-01T23:49:59.095Z,62.28
2019-04-01T23:52:27.394Z,62.20
2019-04-01T23:54:55.753Z,62.20
2019-04-01T23:57:24.224Z,62.63
2019-04-01T23:59:53.463Z,62.70
